Time,TemperatureF,DewpointF,PressureIn,WindDirection,WindDirectionDegrees,WindSpeedMPH,WindSpeedGustMPH,Humidity,HourlyPrecipIn,Conditions,Clouds,dailyrainin,SolarRadiationWatts/m^2,SoftwareType,DateUTC
2013-03-20 00:10:00,58.4,31.0,30.04,NE,47,0.0,3.0,35,0.00,,,0.00,0,weatherlink.com 1.10,2013-03-20 07:10:00,
2013-03-20 00:26:00,56.5,30.0,30.04,NE,46,0.0,1.0,37,0.00,,,0.00,0,weatherlink.com 1.10,2013-03-20 07:26:00,
2013-03-20 00:41:00,55.4,31.0,30.04,East,101,2.0,3.0,40,0.00,,,0.00,0,weatherlink.com 1.10,2013-03-20 07:41:00,
2013-03-20 00:56:00,56.1,31.0,30.04,NE,51,1.0,5.0,38,0.00,,,0.00,0,weatherlink.com 1.10,2013-03-20 07:56:00,
2013-03-20 01:11:00,54.5,30.0,30.04,NE,51,0.0,3.0,40,0.00,,,0.00,0,weatherlink.com 1.10,2013-03-20 08:11:00,
2013-03-20 01:26:00,54.1,31.0,30.05,NE,51,2.0,3.0,42,0.00,,,0.00,0,weatherlink.com 1.10,2013-03-20 08:26:00,
2013-03-20 01:41:00,53.5,31.0,30.05,NE,52,2.0,3.0,43,0.00,,,0.00,0,weatherlink.com 1.10,2013-03-20 08:41:00,
2013-03-20 01:56:00,52.5,32.0,30.05,East,88,0.0,2.0,45,0.00,,,0.00,0,weatherlink.com 1.10,2013-03-20 08:56:00,
2013-03-20 03:26:00,50.5,32.0,30.02,East,86,0.0,0.0,49,0.00,,,0.00,0,weatherlink.com 1.10,2013-03-20 10:26:00,
2013-03-20 03:41:00,50.6,32.0,30.03,East,86,0.0,2.0,49,0.00,,,0.00,0,weatherlink.com 1.10,2013-03-20 10:41:00,
2013-03-20 03:56:00,50.0,32.0,30.03,East,86,0.0,1.0,51,0.00,,,0.00,0,weatherlink.com 1.10,2013-03-20 10:56:00,
2013-03-20 04:11:00,50.0,32.0,30.03,East,86,1.0,2.0,50,0.00,,,0.00,0,weatherlink.com 1.10,2013-03-20 11:11:00,
2013-03-20 04:26:00,49.4,32.0,30.03,East,86,1.0,2.0,52,0.00,,,0.00,0,weatherlink.com 1.10,2013-03-20 11:26:00,
2013-03-20 04:41:00,49.4,32.0,30.03,East,86,1.0,3.0,52,0.00,,,0.00,0,weatherlink.com 1.10,2013-03-20 11:41:00,
2013-03-20 05:11:00,49.8,31.0,30.03,ENE,78,2.0,4.0,49,0.00,,,0.00,0,weatherlink.com 1.10,2013-03-20 12:11:00,
2013-03-20 05:26:00,50.1,32.0,30.03,ENE,78,1.0,3.0,50,0.00,,,0.00,0,weatherlink.com 1.10,2013-03-20 12:26:00,
2013-03-20 05:41:00,49.7,32.0,30.03,ENE,71,0.0,2.0,50,0.00,,,0.00,0,weatherlink.com 1.10,2013-03-20 12:41:00,
2013-03-20 05:56:00,48.8,32.0,30.03,ENE,71,0.0,0.0,53,0.00,,,0.00,0,weatherlink.com 1.10,2013-03-20 12:56:00,
2013-03-20 06:11:00,47.8,32.0,30.04,East,94,0.0,2.0,55,0.00,,,0.00,0,weatherlink.com 1.10,2013-03-20 13:11:00,
2013-03-20 06:26:00,47.4,32.0,30.04,East,94,0.0,0.0,56,0.00,,,0.00,0,weatherlink.com 1.10,2013-03-20 13:26:00,
2013-03-20 06:41:00,47.6,33.0,30.04,East,94,2.0,2.0,57,0.00,,,0.00,16,weatherlink.com 1.10,2013-03-20 13:41:00,
2013-03-20 06:56:00,48.3,33.0,30.04,East,94,1.0,3.0,55,0.00,,,0.00,42,weatherlink.com 1.10,2013-03-20 13:56:00,
2013-03-20 07:12:00,49.6,33.0,30.04,East,79,1.0,3.0,53,0.00,,,0.00,79,weatherlink.com 1.10,2013-03-20 14:12:00,
2013-03-20 07:27:00,51.9,33.0,30.04,East,85,2.0,3.0,48,0.00,,,0.00,123,weatherlink.com 1.10,2013-03-20 14:27:00,
2013-03-20 07:41:00,54.3,34.0,30.04,East,79,0.0,1.0,46,0.00,,,0.00,167,weatherlink.com 1.10,2013-03-20 14:41:00,
2013-03-20 07:57:00,58.1,34.0,30.04,East,79,0.0,1.0,41,0.00,,,0.00,193,weatherlink.com 1.10,2013-03-20 14:57:00,
2013-03-20 08:12:00,58.6,35.0,30.04,South,187,0.0,2.0,41,0.00,,,0.00,204,weatherlink.com 1.10,2013-03-20 15:12:00,
2013-03-20 08:27:00,62.4,34.0,30.03,East,84,0.0,3.0,34,0.00,,,0.00,304,weatherlink.com 1.10,2013-03-20 15:27:00,
2013-03-20 08:42:00,65.8,35.0,30.03,NE,39,1.0,2.0,32,0.00,,,0.00,436,weatherlink.com 1.10,2013-03-20 15:42:00,
2013-03-20 08:57:00,68.4,36.0,30.02,West,273,0.0,3.0,30,0.00,,,0.00,475,weatherlink.com 1.10,2013-03-20 15:57:00,
2013-03-20 09:12:00,70.6,35.0,30.02,SW,227,2.0,6.0,27,0.00,,,0.00,364,weatherlink.com 1.10,2013-03-20 16:12:00,
2013-03-20 09:27:00,72.5,34.0,30.02,SSW,205,3.0,5.0,24,0.00,,,0.00,322,weatherlink.com 1.10,2013-03-20 16:27:00,
2013-03-20 09:42:00,73.4,32.0,30.01,South,187,3.0,3.0,22,0.00,,,0.00,410,weatherlink.com 1.10,2013-03-20 16:42:00,
2013-03-20 09:57:00,73.1,32.0,30.00,NE,47,2.0,3.0,22,0.00,,,0.00,341,weatherlink.com 1.10,2013-03-20 16:57:00,
2013-03-20 10:12:00,73.7,31.0,30.00,ENE,65,1.0,4.0,21,0.00,,,0.00,388,weatherlink.com 1.10,2013-03-20 17:12:00,
2013-03-20 10:27:00,75.0,31.0,30.00,NNW,336,1.0,3.0,20,0.00,,,0.00,487,weatherlink.com 1.10,2013-03-20 17:27:00,
2013-03-20 10:42:00,75.9,31.0,29.99,NNE,23,0.0,4.0,19,0.00,,,0.00,492,weatherlink.com 1.10,2013-03-20 17:42:00,
2013-03-20 10:57:00,77.3,31.0,30.00,NNW,333,4.0,6.0,18,0.00,,,0.00,582,weatherlink.com 1.10,2013-03-20 17:57:00,
2013-03-20 11:12:00,79.5,31.0,29.99,WNW,285,3.0,5.0,17,0.00,,,0.00,700,weatherlink.com 1.10,2013-03-20 18:12:00,
2013-03-20 11:27:00,80.6,29.0,29.99,WSW,257,3.0,5.0,15,0.00,,,0.00,661,weatherlink.com 1.10,2013-03-20 18:27:00,
2013-03-20 11:42:00,80.3,30.0,29.99,WNW,284,3.0,6.0,16,0.00,,,0.00,759,weatherlink.com 1.10,2013-03-20 18:42:00,
2013-03-20 11:57:00,79.6,30.0,29.98,WNW,284,7.0,8.0,16,0.00,,,0.00,587,weatherlink.com 1.10,2013-03-20 18:57:00,
2013-03-20 12:12:00,80.6,29.0,29.98,WSW,254,9.0,9.0,15,0.00,,,0.00,724,weatherlink.com 1.10,2013-03-20 19:12:00,
2013-03-20 12:27:00,80.8,29.0,29.98,West,268,3.0,9.0,15,0.00,,,0.00,694,weatherlink.com 1.10,2013-03-20 19:27:00,
2013-03-20 12:42:00,81.5,30.0,29.97,NW,319,3.0,7.0,15,0.00,,,0.00,615,weatherlink.com 1.10,2013-03-20 19:42:00,
2013-03-20 12:57:00,81.4,29.0,29.96,West,281,7.0,14.0,15,0.00,,,0.00,650,weatherlink.com 1.10,2013-03-20 19:57:00,
2013-03-20 13:12:00,80.7,29.0,29.95,West,279,5.0,8.0,15,0.00,,,0.00,452,weatherlink.com 1.10,2013-03-20 20:12:00,
2013-03-20 13:27:00,80.9,29.0,29.95,SW,236,6.0,11.0,15,0.00,,,0.00,573,weatherlink.com 1.10,2013-03-20 20:27:00,
2013-03-20 13:42:00,81.4,28.0,29.94,WNW,288,6.0,14.0,14,0.00,,,0.00,476,weatherlink.com 1.10,2013-03-20 20:42:00,
2013-03-20 13:57:00,81.0,29.0,29.93,NW,304,7.0,12.0,15,0.00,,,0.00,420,weatherlink.com 1.10,2013-03-20 20:57:00,
2013-03-20 14:13:00,79.9,28.0,29.93,West,272,9.0,9.0,15,0.00,,,0.00,403,weatherlink.com 1.10,2013-03-20 21:13:00,
2013-03-20 14:28:00,80.1,28.0,29.92,NNW,333,4.0,10.0,15,0.00,,,0.00,503,weatherlink.com 1.10,2013-03-20 21:28:00,
2013-03-20 14:43:00,81.7,30.0,29.92,West,261,10.0,11.0,15,0.00,,,0.00,679,weatherlink.com 1.10,2013-03-20 21:43:00,
2013-03-20 15:13:00,81.8,28.0,29.91,NNW,342,8.0,12.0,14,0.00,,,0.00,504,weatherlink.com 1.10,2013-03-20 22:13:00,
2013-03-20 15:28:00,81.7,28.0,29.90,West,272,5.0,12.0,14,0.00,,,0.00,550,weatherlink.com 1.10,2013-03-20 22:28:00,
2013-03-20 15:43:00,81.4,28.0,29.90,SW,229,7.0,15.0,14,0.00,,,0.00,547,weatherlink.com 1.10,2013-03-20 22:43:00,
2013-03-20 15:58:00,81.9,28.0,29.89,West,274,11.0,14.0,14,0.00,,,0.00,448,weatherlink.com 1.10,2013-03-20 22:58:00,
2013-03-20 16:13:00,80.7,27.0,29.89,West,264,7.0,14.0,14,0.00,,,0.00,232,weatherlink.com 1.10,2013-03-20 23:13:00,
2013-03-20 16:28:00,80.3,27.0,29.88,WSW,258,7.0,15.0,14,0.00,,,0.00,387,weatherlink.com 1.10,2013-03-20 23:28:00,
2013-03-20 16:43:00,80.0,27.0,29.88,West,274,6.0,11.0,14,0.00,,,0.00,432,weatherlink.com 1.10,2013-03-20 23:43:00,
2013-03-20 16:58:00,80.5,29.0,29.87,SSW,207,7.0,10.0,15,0.00,,,0.00,241,weatherlink.com 1.10,2013-03-20 23:58:00,
2013-03-20 17:13:00,79.7,28.0,29.87,WSW,248,4.0,9.0,15,0.00,,,0.00,315,weatherlink.com 1.10,2013-03-21 00:13:00,
2013-03-20 17:28:00,79.7,30.0,29.87,West,265,3.0,9.0,16,0.00,,,0.00,134,weatherlink.com 1.10,2013-03-21 00:28:00,
2013-03-20 17:43:00,78.8,29.0,29.87,West,266,5.0,10.0,16,0.00,,,0.00,107,weatherlink.com 1.10,2013-03-21 00:43:00,
2013-03-20 17:58:00,77.9,28.0,29.87,WNW,293,6.0,11.0,16,0.00,,,0.00,54,weatherlink.com 1.10,2013-03-21 00:58:00,
2013-03-20 18:13:00,77.0,29.0,29.87,WSW,244,7.0,10.0,17,0.00,,,0.00,32,weatherlink.com 1.10,2013-03-21 01:13:00,
2013-03-20 18:43:00,74.8,28.0,29.88,West,275,4.0,9.0,18,0.00,,,0.00,0,weatherlink.com 1.10,2013-03-21 01:43:00,
2013-03-20 18:58:00,73.7,29.0,29.87,West,277,3.0,5.0,19,0.00,,,0.00,0,weatherlink.com 1.10,2013-03-21 01:58:00,
2013-03-20 19:13:00,72.2,30.0,29.87,WNW,288,0.0,4.0,21,0.00,,,0.00,0,weatherlink.com 1.10,2013-03-21 02:13:00,
2013-03-20 19:28:00,71.2,30.0,29.87,WNW,288,0.0,1.0,22,0.00,,,0.00,0,weatherlink.com 1.10,2013-03-21 02:28:00,
2013-03-20 19:43:00,70.5,31.0,29.87,WNW,288,1.0,1.0,23,0.00,,,0.00,0,weatherlink.com 1.10,2013-03-21 02:43:00,
2013-03-20 19:58:00,69.6,31.0,29.87,NW,324,0.0,0.0,24,0.00,,,0.00,0,weatherlink.com 1.10,2013-03-21 02:58:00,
2013-03-20 20:13:00,69.6,32.0,29.87,NW,324,0.0,1.0,25,0.00,,,0.00,0,weatherlink.com 1.10,2013-03-21 03:13:00,
2013-03-20 20:28:00,68.0,32.0,29.87,NE,48,3.0,5.0,26,0.00,,,0.00,0,weatherlink.com 1.10,2013-03-21 03:28:00,
2013-03-20 20:43:00,68.2,32.0,29.88,SE,144,1.0,4.0,26,0.00,,,0.00,0,weatherlink.com 1.10,2013-03-21 03:43:00,
2013-03-20 20:58:00,67.3,31.0,29.87,ENE,61,2.0,4.0,26,0.00,,,0.00,0,weatherlink.com 1.10,2013-03-21 03:58:00,
2013-03-20 21:13:00,66.3,30.0,29.87,ENE,62,2.0,3.0,26,0.00,,,0.00,0,weatherlink.com 1.10,2013-03-21 04:13:00,
2013-03-20 21:28:00,64.1,31.0,29.88,WNW,293,1.0,3.0,29,0.00,,,0.00,0,weatherlink.com 1.10,2013-03-21 04:28:00,
2013-03-20 21:43:00,62.9,32.0,29.88,WNW,298,0.0,1.0,31,0.00,,,0.00,0,weatherlink.com 1.10,2013-03-21 04:43:00,
2013-03-20 21:58:00,61.7,31.0,29.88,ENE,62,1.0,3.0,31,0.00,,,0.00,0,weatherlink.com 1.10,2013-03-21 04:58:00,
2013-03-20 22:13:00,61.7,31.0,29.89,ENE,67,1.0,2.0,32,0.00,,,0.00,0,weatherlink.com 1.10,2013-03-21 05:13:00,
2013-03-20 22:28:00,62.0,31.0,29.88,ENE,67,2.0,2.0,31,0.00,,,0.00,0,weatherlink.com 1.10,2013-03-21 05:28:00,
2013-03-20 22:43:00,60.8,31.0,29.88,ENE,67,3.0,3.0,33,0.00,,,0.00,0,weatherlink.com 1.10,2013-03-21 05:43:00,
2013-03-20 22:58:00,62.0,31.0,29.88,NE,40,0.0,5.0,31,0.00,,,0.00,0,weatherlink.com 1.10,2013-03-21 05:58:00,
2013-03-20 23:13:00,60.7,30.0,29.87,NE,40,1.0,2.0,32,0.00,,,0.00,0,weatherlink.com 1.10,2013-03-21 06:13:00,
2013-03-20 23:28:00,58.7,32.0,29.87,SE,134,0.0,1.0,36,0.00,,,0.00,0,weatherlink.com 1.10,2013-03-21 06:28:00,
2013-03-20 23:43:00,58.1,31.0,29.86,East,96,0.0,3.0,36,0.00,,,0.00,0,weatherlink.com 1.10,2013-03-21 06:43:00,
2013-03-20 23:58:00,57.3,32.0,29.86,East,96,0.0,2.0,38,0.00,,,0.00,0,weatherlink.com 1.10,2013-03-21 06:58:00,